Time;durP1;ratioP1;P1;durP2;ratioP2;P2;SDS_P1;SDS_P2;PMS_P1;PMS_P2;Temp;Humidity;BMP_temperature;BMP_pressure;BME280_temperature;BME280_humidity;BME280_pressure;Samples;Min_cycle;Max_cycle;Signal;HPM_P1;HPM_P2
2023/01/14 00:01:20;;;;;;;6.47;2.92;;;7.60;99.90;;;;;;5032078;28;20872;-85
2023/01/14 00:03:46;;;;;;;8.90;3.30;;;7.60;99.90;;;;;;5032357;28;20368;-86
2023/01/14 00:06:15;;;;;;;9.05;3.50;;;7.60;99.90;;;;;;5031865;28;20400;-86
2023/01/14 00:08:41;;;;;;;10.07;3.28;;;7.70;99.90;;;;;;5030596;28;20455;-85
2023/01/14 00:11:08;;;;;;;8.77;3.23;;;7.70;99.90;;;;;;5031577;28;20413;-86
2023/01/14 00:13:37;;;;;;;8.63;3.40;;;7.60;99.90;;;;;;5031547;28;20900;-86
2023/01/14 00:16:04;;;;;;;8.02;3.25;;;7.60;99.90;;;;;;5032993;28;20374;-86
2023/01/14 00:18:32;;;;;;;11.00;3.35;;;7.60;99.90;;;;;;5032808;28;20876;-86
2023/01/14 00:21:03;;;;;;;8.70;3.45;;;7.50;99.90;;;;;;5032786;28;20452;-87
2023/01/14 00:23:29;;;;;;;8.17;3.40;;;7.50;99.90;;;;;;5031286;28;21301;-87
2023/01/14 00:26:03;;;;;;;8.60;4.50;;;7.50;99.90;;;;;;5032794;28;20385;-86
2023/01/14 00:28:29;;;;;;;15.60;5.93;;;7.50;99.90;;;;;;5033322;28;20392;-86
2023/01/14 00:31:08;;;;;;;10.23;5.35;;;7.50;99.90;;;;;;5046401;28;20376;-85
2023/01/14 00:33:35;;;;;;;9.52;4.40;;;7.50;99.90;;;;;;5041419;28;20498;-87
2023/01/14 00:36:01;;;;;;;17.98;8.40;;;7.60;99.90;;;;;;5029858;28;20396;-85
2023/01/14 00:38:27;;;;;;;11.55;6.00;;;7.70;99.90;;;;;;5031173;28;20451;-86
2023/01/14 00:41:10;;;;;;;13.52;5.68;;;7.70;99.90;;;;;;5032910;28;20370;-86
2023/01/14 00:43:37;;;;;;;11.23;5.40;;;7.70;99.90;;;;;;5031173;28;20404;-86
2023/01/14 00:46:08;;;;;;;9.32;3.53;;;7.70;99.90;;;;;;5031507;28;20448;-88
2023/01/14 00:48:34;;;;;;;9.02;3.53;;;7.80;99.90;;;;;;5031628;28;20943;-85
2023/01/14 00:51:03;;;;;;;8.98;3.30;;;7.70;99.90;;;;;;5031997;28;20528;-85
2023/01/14 00:53:29;;;;;;;9.45;3.38;;;7.70;99.90;;;;;;5032704;28;20400;-86
2023/01/14 00:55:55;;;;;;;10.60;3.30;;;7.80;99.90;;;;;;5031724;28;20885;-85
2023/01/14 00:58:21;;;;;;;7.40;3.25;;;7.70;99.90;;;;;;5031222;28;20389;-86
2023/01/14 01:00:46;;;;;;;8.50;3.33;;;7.80;99.90;;;;;;5031562;28;20366;-86
2023/01/14 01:03:13;;;;;;;8.77;3.13;;;7.70;99.90;;;;;;5030691;28;20405;-84
2023/01/14 01:05:39;;;;;;;7.15;3.22;;;7.80;99.90;;;;;;5032521;28;20740;-87
2023/01/14 01:08:07;;;;;;;8.32;3.28;;;7.80;99.90;;;;;;5030331;28;20390;-87
2023/01/14 01:10:34;;;;;;;9.98;3.55;;;7.70;99.90;;;;;;5030251;28;20400;-86
2023/01/14 01:13:01;;;;;;;7.40;3.20;;;7.70;99.90;;;;;;5032790;28;20366;-86
2023/01/14 01:15:27;;;;;;;8.35;3.00;;;7.70;99.90;;;;;;5030684;28;20377;-87
2023/01/14 01:17:53;;;;;;;7.13;3.25;;;7.60;99.90;;;;;;5030231;28;20717;-85
2023/01/14 01:20:18;;;;;;;10.80;3.53;;;7.70;99.90;;;;;;5030491;28;20970;-86
2023/01/14 01:22:44;;;;;;;6.93;2.90;;;7.60;99.90;;;;;;5030631;28;20377;-86
2023/01/14 01:25:10;;;;;;;7.07;3.07;;;7.60;99.90;;;;;;5030685;28;20423;-85
2023/01/14 01:27:35;;;;;;;8.73;2.90;;;7.60;99.90;;;;;;5032032;28;20397;-86
2023/01/14 01:30:01;;;;;;;9.63;2.97;;;7.60;99.90;;;;;;5029581;28;20463;-86
2023/01/14 01:32:27;;;;;;;8.68;2.90;;;7.60;99.90;;;;;;5031251;28;20370;-84
2023/01/14 01:34:53;;;;;;;7.50;2.93;;;7.70;99.90;;;;;;5031712;28;20377;-84
2023/01/14 01:37:18;;;;;;;8.73;2.73;;;7.70;99.90;;;;;;5030589;28;20382;-85
2023/01/14 01:39:45;;;;;;;8.13;3.30;;;7.60;99.90;;;;;;5030320;28;20405;-85
2023/01/14 01:42:13;;;;;;;9.20;3.30;;;7.60;99.90;;;;;;5032424;28;20419;-84
2023/01/14 01:44:42;;;;;;;10.55;3.40;;;7.60;99.90;;;;;;5028784;28;20424;-86
2023/01/14 01:47:08;;;;;;;6.72;2.72;;;7.60;99.90;;;;;;5030459;28;20393;-85
2023/01/14 01:49:37;;;;;;;6.93;2.72;;;7.60;99.90;;;;;;5029028;28;20424;-85
2023/01/14 01:52:13;;;;;;;8.43;3.20;;;7.60;99.90;;;;;;5029640;28;20893;-87
2023/01/14 01:54:45;;;;;;;9.00;3.08;;;7.70;99.90;;;;;;5029443;28;20377;-85
2023/01/14 01:57:13;;;;;;;7.22;3.20;;;7.60;99.90;;;;;;5026369;28;20399;-87
2023/01/14 01:59:42;;;;;;;7.35;3.00;;;7.60;99.90;;;;;;5035960;28;20426;-84
2023/01/14 02:02:08;;;;;;;6.97;2.95;;;7.60;99.90;;;;;;5031871;28;20867;-86
2023/01/14 02:04:35;;;;;;;9.73;2.80;;;7.60;99.90;;;;;;5030055;28;20377;-86
2023/01/14 02:07:01;;;;;;;8.60;3.15;;;7.70;99.90;;;;;;5030598;28;20393;-86
2023/01/14 02:09:27;;;;;;;9.45;2.80;;;7.70;99.90;;;;;;5026942;28;20443;-89
2023/01/14 02:12:06;;;;;;;7.40;2.90;;;7.70;99.90;;;;;;5030553;28;20468;-87
2023/01/14 02:14:32;;;;;;;8.57;2.70;;;7.60;99.90;;;;;;5031389;28;20370;-87
2023/01/14 02:17:07;;;;;;;7.00;2.77;;;7.50;99.90;;;;;;5033207;28;20385;-87
2023/01/14 02:20:13;;;;;;;6.65;2.97;;;7.50;99.90;;;;;;5031438;28;20437;-87
2023/01/14 02:25:28;;;;;;;9.10;2.92;;;7.40;99.90;;;;;;5101584;22;20428;-87
2023/01/14 02:28:16;;;;;;;7.35;2.60;;;7.40;99.90;;;;;;5047153;28;21038;-89
2023/01/14 02:31:12;;;;;;;6.65;2.55;;;7.30;99.90;;;;;;5039289;28;20403;-89
2023/01/14 02:33:49;;;;;;;7.88;2.50;;;7.40;99.90;;;;;;5040455;28;20385;-89
2023/01/14 02:36:21;;;;;;;7.43;2.60;;;7.40;99.90;;;;;;5040992;28;20779;-89
2023/01/14 02:39:12;;;;;;;7.55;2.70;;;7.40;99.90;;;;;;5046443;28;20481;-90
2023/01/14 02:45:57;;;;;;;6.57;2.95;;;7.10;99.90;;;;;;4991641;28;20525;-89
2023/01/14 02:48:27;;;;;;;7.07;2.67;;;7.10;99.90;;;;;;4995056;28;20403;-90
2023/01/14 02:50:53;;;;;;;7.77;3.00;;;7.10;99.90;;;;;;5037819;28;20576;-88
2023/01/14 02:53:39;;;;;;;9.13;3.03;;;6.90;99.90;;;;;;5043753;28;21034;-90
2023/01/14 02:56:33;;;;;;;6.55;2.85;;;7.00;99.90;;;;;;5043987;28;20384;-90
2023/01/14 02:59:14;;;;;;;6.85;2.70;;;6.90;99.90;;;;;;5048476;28;20371;-89
2023/01/14 03:02:05;;;;;;;7.20;3.20;;;6.80;99.90;;;;;;5033904;28;20413;-89
2023/01/14 03:05:28;;;;;;;6.97;2.67;;;6.80;99.90;;;;;;5038247;28;20389;-88
2023/01/14 03:08:25;;;;;;;7.82;3.60;;;6.90;99.90;;;;;;5034151;28;20417;-88
2023/01/14 03:11:12;;;;;;;8.80;3.58;;;6.90;99.90;;;;;;5052261;28;20422;-89
2023/01/14 03:14:17;;;;;;;8.32;3.17;;;6.90;99.90;;;;;;5056794;28;20438;-87
2023/01/14 03:16:57;;;;;;;9.57;2.92;;;6.90;99.90;;;;;;5053188;28;20435;-86
2023/01/14 03:19:34;;;;;;;7.80;2.90;;;7.00;99.90;;;;;;5056440;28;20380;-89
2023/01/14 03:22:12;;;;;;;7.53;2.95;;;7.00;99.90;;;;;;5036713;28;20382;-89
2023/01/14 03:24:43;;;;;;;5.03;2.10;;;7.10;99.90;;;;;;5036082;28;20416;-90
2023/01/14 03:27:23;;;;;;;6.82;2.25;;;7.10;99.90;;;;;;5055497;28;20467;-88
2023/01/14 03:30:01;;;;;;;6.70;2.72;;;7.20;99.90;;;;;;5057444;28;20403;-89
2023/01/14 03:32:49;;;;;;;7.55;2.60;;;7.10;99.90;;;;;;5055701;28;20392;-89
2023/01/14 03:35:25;;;;;;;5.07;2.38;;;7.20;99.90;;;;;;5054472;28;20511;-90
2023/01/14 03:38:01;;;;;;;8.13;2.30;;;7.20;99.90;;;;;;5057925;28;20383;-89
2023/01/14 03:40:29;;;;;;;6.93;2.42;;;7.20;99.90;;;;;;5056933;28;20383;-89
2023/01/14 03:43:23;;;;;;;7.75;2.40;;;7.30;99.90;;;;;;5057245;28;20492;-90
2023/01/14 03:45:55;;;;;;;7.45;2.70;;;7.30;99.90;;;;;;5055243;28;20407;-89
2023/01/14 03:48:57;;;;;;;7.45;2.80;;;7.30;99.90;;;;;;5054085;28;20399;-89
2023/01/14 03:51:44;;;;;;;7.57;2.55;;;7.30;99.90;;;;;;5049715;28;20379;-89
2023/01/14 03:54:45;;;;;;;5.33;2.60;;;7.30;99.90;;;;;;5053290;28;20404;-87
2023/01/14 03:57:26;;;;;;;6.03;2.88;;;7.40;99.90;;;;;;5049415;28;20417;-87
2023/01/14 04:00:13;;;;;;;7.77;2.83;;;7.30;99.90;;;;;;5053515;28;20410;-87
2023/01/14 04:02:40;;;;;;;5.57;2.80;;;7.30;99.90;;;;;;5056688;28;20452;-86
2023/01/14 04:05:12;;;;;;;7.57;2.83;;;7.30;99.90;;;;;;5052041;28;20403;-87
2023/01/14 04:07:47;;;;;;;8.60;2.83;;;7.30;99.90;;;;;;5052906;28;20408;-87
2023/01/14 04:10:13;;;;;;;7.68;2.67;;;7.30;99.90;;;;;;5052434;28;20453;-86
2023/01/14 04:15:20;;;;;;;9.15;2.85;;;7.30;99.90;;;;;;5054854;28;20900;-86
2023/01/14 04:15:25;;;;;;;6.50;2.70;;;7.20;99.90;;;;;;5053711;28;20426;-87
2023/01/14 04:17:53;;;;;;;7.90;2.50;;;7.20;99.90;;;;;;5051102;28;20726;-87
2023/01/14 04:20:24;;;;;;;6.40;2.72;;;7.40;99.90;;;;;;5051896;28;20380;-87
2023/01/14 04:22:52;;;;;;;7.32;2.75;;;7.30;99.90;;;;;;5051310;28;20507;-87
2023/01/14 04:25:18;;;;;;;7.93;2.80;;;7.40;99.90;;;;;;5052405;28;20427;-88
2023/01/14 04:27:54;;;;;;;;;;;;;;;;;;;;;
2023/01/14 04:30:22;;;;;;;6.85;2.78;;;7.40;99.90;;;;;;5052244;28;20380;-87
2023/01/14 04:32:51;;;;;;;8.02;2.83;;;7.40;99.90;;;;;;5050788;28;20403;-88
2023/01/14 04:35:17;;;;;;;7.55;2.85;;;7.40;99.90;;;;;;5052584;28;20389;-86
2023/01/14 04:37:45;;;;;;;8.83;3.10;;;7.40;99.90;;;;;;5053664;28;20376;-88
2023/01/14 04:40:11;;;;;;;9.10;3.40;;;7.40;99.90;;;;;;5053843;28;20382;-87
2023/01/14 04:42:37;;;;;;;9.82;3.10;;;7.40;99.90;;;;;;5052813;28;20426;-89
2023/01/14 04:45:08;;;;;;;8.73;2.90;;;7.40;99.90;;;;;;5052808;28;20862;-88
2023/01/14 04:47:38;;;;;;;6.72;3.08;;;7.40;99.90;;;;;;5051601;28;20400;-88
2023/01/14 04:50:30;;;;;;;5.60;2.95;;;7.40;99.90;;;;;;5053112;28;20371;-88
2023/01/14 04:52:51;;;;;;;6.85;2.83;;;7.40;99.90;;;;;;5051312;28;20407;-87
2023/01/14 04:55:17;;;;;;;7.03;2.85;;;7.40;99.90;;;;;;5053556;28;20368;-88
2023/01/14 04:57:43;;;;;;;7.40;2.78;;;7.40;99.90;;;;;;5037112;28;20470;-89
2023/01/14 05:00:10;;;;;;;7.47;2.93;;;7.50;99.90;;;;;;5052925;28;20383;-87
2023/01/14 05:02:53;;;;;;;7.77;2.67;;;7.40;99.90;;;;;;5052374;28;20432;-89
2023/01/14 05:05:44;;;;;;;7.03;2.97;;;7.50;99.90;;;;;;5053649;28;20451;-89
2023/01/14 05:08:11;;;;;;;6.65;2.97;;;7.50;99.90;;;;;;5052606;28;20407;-87
2023/01/14 05:10:38;;;;;;;8.70;3.70;;;7.50;99.90;;;;;;5052200;28;20368;-89
2023/01/14 05:13:07;;;;;;;9.48;3.13;;;7.40;99.90;;;;;;5052253;28;20445;-89
2023/01/14 05:15:40;;;;;;;8.45;3.05;;;7.40;99.90;;;;;;5054024;28;20380;-89
2023/01/14 05:18:07;;;;;;;7.15;3.13;;;7.40;99.90;;;;;;5054611;28;20407;-88
2023/01/14 05:20:33;;;;;;;7.20;3.35;;;7.50;99.90;;;;;;5057321;28;20518;-86
2023/01/14 05:23:05;;;;;;;7.43;3.03;;;7.50;99.90;;;;;;5069798;28;20392;-88
2023/01/14 05:25:51;;;;;;;;;;;;;;;;;;;;;
2023/01/14 05:28:19;;;;;;;8.63;2.72;;;7.50;99.90;;;;;;5057874;28;20522;-89
2023/01/14 05:30:47;;;;;;;7.93;2.80;;;7.60;99.90;;;;;;5058627;28;20463;-88
2023/01/14 05:33:13;;;;;;;8.45;3.70;;;7.50;99.90;;;;;;5056884;28;20383;-89
2023/01/14 05:35:39;;;;;;;7.85;3.25;;;7.50;99.90;;;;;;5052964;28;20486;-91
2023/01/14 05:38:08;;;;;;;10.73;2.97;;;7.50;99.90;;;;;;5052046;28;20424;-88
2023/01/14 05:40:37;;;;;;;9.50;2.72;;;7.50;99.90;;;;;;5053100;28;20434;-89
2023/01/14 05:46:03;;;;;;;9.85;2.97;;;7.60;99.90;;;;;;5052388;28;20461;-88
2023/01/14 05:48:29;;;;;;;6.68;2.80;;;7.50;99.90;;;;;;5053178;28;20408;-88
2023/01/14 05:50:57;;;;;;;8.68;2.83;;;7.50;99.90;;;;;;5053793;28;20401;-90
2023/01/14 05:53:29;;;;;;;11.35;4.00;;;7.60;99.90;;;;;;5054273;28;20479;-90
2023/01/14 05:55:57;;;;;;;6.80;2.70;;;7.50;99.90;;;;;;5051938;28;20467;-88
2023/01/14 05:58:23;;;;;;;7.80;2.88;;;7.60;99.90;;;;;;5052366;28;20468;-89
2023/01/14 06:06:43;;;;;;;7.85;2.60;;;7.60;99.90;;;;;;5055637;28;20482;-87
2023/01/14 06:09:16;;;;;;;8.77;2.75;;;7.60;99.90;;;;;;5052657;28;20399;-90
2023/01/14 06:12:01;;;;;;;8.65;2.80;;;7.60;99.90;;;;;;5051736;28;20504;-87
2023/01/14 06:14:34;;;;;;;7.37;3.00;;;7.70;99.90;;;;;;5053980;28;20423;-87
2023/01/14 06:17:05;;;;;;;7.82;2.90;;;7.70;99.90;;;;;;5052667;28;20812;-88
2023/01/14 06:19:33;;;;;;;8.18;2.90;;;7.60;99.90;;;;;;5051924;28;20470;-88
2023/01/14 06:21:59;;;;;;;11.88;2.90;;;7.50;99.90;;;;;;5048356;28;20473;-89
2023/01/14 06:24:25;;;;;;;10.77;2.83;;;7.60;99.90;;;;;;5050273;28;20881;-91
2023/01/14 06:26:53;;;;;;;6.53;2.85;;;7.60;99.90;;;;;;5050537;28;20897;-88
2023/01/14 06:29:19;;;;;;;8.73;3.45;;;7.60;99.90;;;;;;5050951;28;20375;-88
2023/01/14 06:31:44;;;;;;;12.57;3.58;;;7.50;99.90;;;;;;5049073;28;20411;-88
2023/01/14 06:34:10;;;;;;;10.13;3.47;;;7.50;99.90;;;;;;5055189;28;20427;-89
2023/01/14 06:36:37;;;;;;;10.77;3.33;;;7.30;99.90;;;;;;5050130;28;20380;-88
2023/01/14 06:39:03;;;;;;;11.40;3.60;;;7.30;99.90;;;;;;5051747;28;20387;-88
2023/01/14 06:41:29;;;;;;;8.48;3.33;;;7.30;99.90;;;;;;5048873;28;20403;-88
2023/01/14 06:43:55;;;;;;;10.85;3.50;;;7.30;99.90;;;;;;5052010;28;20376;-89
2023/01/14 06:46:21;;;;;;;10.60;3.90;;;7.20;99.90;;;;;;5049636;28;20456;-89
2023/01/14 06:48:56;;;;;;;13.02;4.22;;;7.30;99.90;;;;;;5050665;28;20399;-87
2023/01/14 06:51:21;;;;;;;10.77;3.73;;;7.30;99.90;;;;;;5049938;28;20411;-89
2023/01/14 06:53:48;;;;;;;9.03;4.13;;;7.20;99.90;;;;;;5050611;28;20885;-87
2023/01/14 06:56:16;;;;;;;10.93;4.03;;;7.20;99.90;;;;;;5049607;28;20746;-87
2023/01/14 06:58:41;;;;;;;10.25;3.70;;;7.20;99.90;;;;;;5049884;28;20386;-88
2023/01/14 07:01:09;;;;;;;9.10;3.60;;;7.20;99.90;;;;;;5049787;28;20432;-88
2023/01/14 07:03:35;;;;;;;11.30;3.38;;;7.30;99.90;;;;;;5050486;28;20395;-87
2023/01/14 07:06:04;;;;;;;8.15;3.47;;;7.30;99.90;;;;;;5050165;28;20379;-88
2023/01/14 07:08:36;;;;;;;9.07;3.17;;;7.20;99.90;;;;;;5050288;28;20399;-89
2023/01/14 07:11:02;;;;;;;6.93;3.08;;;7.20;99.90;;;;;;5047737;28;20418;-88
2023/01/14 07:13:28;;;;;;;7.88;3.00;;;7.20;99.90;;;;;;5050051;28;20467;-87
2023/01/14 07:15:54;;;;;;;8.87;3.30;;;7.20;99.90;;;;;;5049013;28;20491;-89
2023/01/14 07:18:19;;;;;;;8.00;3.10;;;7.10;99.90;;;;;;5049411;28;20415;-87
2023/01/14 07:20:45;;;;;;;10.77;3.30;;;7.10;99.90;;;;;;5050774;28;20396;-87
2023/01/14 07:23:11;;;;;;;7.75;3.15;;;7.20;99.90;;;;;;5049612;28;20380;-86
2023/01/14 07:25:40;;;;;;;10.93;3.30;;;7.10;99.90;;;;;;5047518;28;20411;-89
2023/01/14 07:28:05;;;;;;;10.30;3.35;;;7.00;99.90;;;;;;5049100;28;20812;-87
2023/01/14 07:30:31;;;;;;;8.57;3.27;;;6.90;99.90;;;;;;5049359;28;20396;-87
2023/01/14 07:32:59;;;;;;;8.68;3.25;;;7.00;99.90;;;;;;5053944;28;20878;-90
2023/01/14 07:35:26;;;;;;;9.00;3.20;;;7.20;99.90;;;;;;5054547;28;20399;-88
2023/01/14 07:37:59;;;;;;;9.27;3.40;;;7.20;99.90;;;;;;5054771;28;20780;-90
2023/01/14 07:40:25;;;;;;;11.60;3.45;;;7.10;99.90;;;;;;5052619;28;20395;-88
2023/01/14 07:42:56;;;;;;;8.77;3.80;;;7.10;99.90;;;;;;5053428;28;20953;-88
2023/01/14 07:45:22;;;;;;;8.93;3.45;;;7.00;99.90;;;;;;5054296;28;20470;-88
2023/01/14 07:47:47;;;;;;;10.40;3.67;;;6.90;99.90;;;;;;5052361;28;20495;-88
2023/01/14 07:50:13;;;;;;;7.68;3.90;;;7.00;99.90;;;;;;5054166;28;20391;-88
2023/01/14 07:52:39;;;;;;;6.10;3.70;;;7.10;99.90;;;;;;5053895;28;20805;-88
2023/01/14 07:55:05;;;;;;;8.60;3.87;;;7.00;99.90;;;;;;5055373;28;20795;-88
2023/01/14 07:57:31;;;;;;;11.17;3.63;;;7.00;99.90;;;;;;5055205;28;20372;-88
2023/01/14 07:59:57;;;;;;;10.23;3.50;;;7.00;99.90;;;;;;5057912;28;20412;-88
2023/01/14 08:02:22;;;;;;;7.60;3.00;;;7.00;99.90;;;;;;5072076;28;20383;-89
2023/01/14 08:04:48;;;;;;;6.50;3.03;;;7.10;99.90;;;;;;5074439;28;20395;-89
2023/01/14 08:07:15;;;;;;;9.10;2.92;;;7.20;99.90;;;;;;5061815;28;20428;-91
2023/01/14 08:09:41;;;;;;;7.93;3.40;;;7.20;99.90;;;;;;5057909;28;20403;-87
2023/01/14 08:12:07;;;;;;;6.60;3.33;;;7.20;99.90;;;;;;5035815;28;20397;-88
2023/01/14 08:14:33;;;;;;;10.68;3.17;;;7.30;99.90;;;;;;5047223;28;20412;-88
2023/01/14 08:17:02;;;;;;;7.45;2.80;;;7.30;99.90;;;;;;5032990;28;20401;-87
2023/01/14 08:19:29;;;;;;;7.93;2.90;;;7.40;99.90;;;;;;5035803;28;20389;-87
2023/01/14 08:21:55;;;;;;;7.40;3.40;;;7.40;99.90;;;;;;5035929;28;20373;-87
2023/01/14 08:24:20;;;;;;;6.60;3.13;;;7.50;99.90;;;;;;5032448;28;20397;-88
2023/01/14 08:26:46;;;;;;;13.27;3.50;;;7.40;99.90;;;;;;5041579;28;20378;-87
2023/01/14 08:29:12;;;;;;;5.63;3.30;;;7.40;99.90;;;;;;5032476;28;20389;-87
2023/01/14 08:31:40;;;;;;;8.10;2.93;;;7.50;99.90;;;;;;5035526;28;20494;-87
2023/01/14 08:34:07;;;;;;;5.78;2.88;;;7.60;99.90;;;;;;5072796;28;20480;-87
2023/01/14 08:36:33;;;;;;;8.57;3.15;;;7.60;99.90;;;;;;5070386;28;20798;-86
2023/01/14 08:38:59;;;;;;;6.57;3.00;;;7.60;99.90;;;;;;5072358;28;20374;-89
2023/01/14 08:41:24;;;;;;;8.20;3.20;;;7.70;99.90;;;;;;5052509;28;20404;-88
2023/01/14 08:43:51;;;;;;;10.17;3.47;;;7.70;99.90;;;;;;5050990;28;20388;-88
2023/01/14 08:46:18;;;;;;;6.85;2.80;;;7.70;99.90;;;;;;5054153;28;20387;-89
2023/01/14 08:48:44;;;;;;;8.10;3.28;;;7.70;99.90;;;;;;5054087;28;20404;-89
2023/01/14 08:51:13;;;;;;;8.20;3.03;;;7.80;99.90;;;;;;5051742;28;20400;-88
2023/01/14 08:53:40;;;;;;;8.50;3.60;;;7.80;99.90;;;;;;5045140;28;20426;-84
2023/01/14 08:56:09;;;;;;;6.00;3.10;;;7.70;99.90;;;;;;5041467;28;20384;-84
2023/01/14 08:58:35;;;;;;;6.57;2.90;;;7.90;99.90;;;;;;5043073;28;20395;-85
2023/01/14 09:01:06;;;;;;;6.17;3.00;;;8.00;99.90;;;;;;5039673;28;20384;-85
2023/01/14 09:03:33;;;;;;;9.60;3.43;;;7.90;99.90;;;;;;5051466;28;20475;-87
2023/01/14 09:06:01;;;;;;;8.15;2.97;;;8.10;99.90;;;;;;5049923;28;20411;-86
2023/01/14 09:19:31;;;;;;;7.82;2.72;;;8.40;99.90;;;;;;5051220;28;20398;-87
2023/01/14 09:21:57;;;;;;;8.55;3.03;;;8.20;99.90;;;;;;5051730;28;20546;-82
2023/01/14 09:24:23;;;;;;;8.50;3.17;;;8.30;99.90;;;;;;5054351;28;20386;-83
2023/01/14 09:26:48;;;;;;;12.07;3.88;;;8.40;99.90;;;;;;5052849;28;20799;-83
2023/01/14 09:29:14;;;;;;;8.50;3.33;;;8.30;99.90;;;;;;5053151;28;20802;-82
2023/01/14 09:31:41;;;;;;;8.23;3.45;;;8.50;99.90;;;;;;5053765;28;20403;-84
2023/01/14 09:34:08;;;;;;;8.80;3.20;;;8.60;99.90;;;;;;5050311;28;20401;-85
2023/01/14 09:36:34;;;;;;;7.55;3.30;;;8.70;99.90;;;;;;5052314;28;20459;-84
2023/01/14 09:38:59;;;;;;;8.03;2.90;;;8.80;99.90;;;;;;5041217;28;20725;-87
2023/01/14 09:41:30;;;;;;;10.07;3.40;;;8.80;99.90;;;;;;5053165;28;20403;-88
2023/01/14 09:43:56;;;;;;;12.65;3.72;;;8.80;99.90;;;;;;5046827;28;20478;-86
2023/01/14 09:46:25;;;;;;;11.75;3.40;;;8.80;99.90;;;;;;5051487;28;20399;-89
2023/01/14 09:48:55;;;;;;;7.25;2.92;;;8.90;99.90;;;;;;5053871;28;20447;-88
2023/01/14 09:52:01;;;;;;;9.77;3.07;;;8.80;99.90;;;;;;5053628;28;20400;-88
2023/01/14 09:54:45;;;;;;;9.52;2.92;;;8.80;99.90;;;;;;5051792;28;20390;-89
2023/01/14 09:57:19;;;;;;;6.35;2.63;;;8.80;99.90;;;;;;5047648;28;20379;-88
2023/01/14 10:00:22;;;;;;;7.07;2.90;;;9.00;99.90;;;;;;5054858;28;20376;-88
2023/01/14 10:02:59;;;;;;;7.90;2.95;;;9.20;99.90;;;;;;5055834;28;20396;-88
2023/01/14 10:05:32;;;;;;;7.25;2.47;;;9.40;99.90;;;;;;5056621;28;20363;-89
2023/01/14 10:08:03;;;;;;;7.32;3.30;;;9.30;99.90;;;;;;5054651;28;20975;-87
2023/01/14 10:10:39;;;;;;;8.63;3.10;;;9.20;99.90;;;;;;5055922;28;20372;-89
2023/01/14 10:13:31;;;;;;;11.50;2.97;;;9.10;99.90;;;;;;5055872;28;20841;-89
2023/01/14 10:16:08;;;;;;;7.25;2.83;;;9.10;99.90;;;;;;5057799;28;20422;-88
2023/01/14 10:18:47;;;;;;;9.88;3.20;;;9.10;99.90;;;;;;5057013;28;20409;-89
2023/01/14 10:21:34;;;;;;;11.02;3.13;;;9.10;99.90;;;;;;5056408;28;20743;-89
2023/01/14 10:24:00;;;;;;;11.95;3.13;;;9.00;99.90;;;;;;5058416;28;20544;-91
2023/01/14 10:26:32;;;;;;;10.85;3.22;;;9.00;99.90;;;;;;5054610;28;20403;-89
2023/01/14 10:29:13;;;;;;;11.37;3.50;;;9.10;99.90;;;;;;5053254;28;20449;-88
2023/01/14 10:31:43;;;;;;;9.57;3.53;;;9.10;99.90;;;;;;5043870;28;20413;-91
2023/01/14 10:34:12;;;;;;;10.25;3.63;;;9.20;99.90;;;;;;5046919;28;20399;-86
2023/01/14 10:36:38;;;;;;;9.85;3.80;;;9.30;99.90;;;;;;5043926;28;20950;-86
2023/01/14 10:39:06;;;;;;;19.17;7.27;;;9.40;99.90;;;;;;5048906;28;20408;-91
2023/01/14 10:41:50;;;;;;;22.42;8.10;;;9.40;99.90;;;;;;5051597;28;21102;-88
2023/01/14 10:44:27;;;;;;;12.35;5.05;;;9.40;99.90;;;;;;5055062;28;20422;-88
2023/01/14 10:47:44;;;;;;;15.47;6.00;;;9.50;99.90;;;;;;5050268;28;20395;-89
2023/01/14 10:50:32;;;;;;;13.57;4.50;;;9.50;99.90;;;;;;5046673;28;20405;-89
2023/01/14 10:53:59;;;;;;;;;;;;;;;;;;;;;
2023/01/14 10:56:30;;;;;;;12.48;3.83;;;9.80;99.90;;;;;;5042069;28;20381;-89
2023/01/14 10:58:56;;;;;;;14.93;4.32;;;9.50;99.90;;;;;;5047862;28;20379;-89
2023/01/14 11:01:22;;;;;;;12.88;3.97;;;9.50;99.90;;;;;;5046582;28;20746;-89
2023/01/14 11:03:49;;;;;;;14.23;4.60;;;9.30;99.90;;;;;;5044463;28;20403;-89
2023/01/14 11:06:30;;;;;;;12.35;3.72;;;9.30;99.90;;;;;;5053582;28;20388;-90
2023/01/14 11:08:59;;;;;;;11.95;4.13;;;9.30;99.90;;;;;;5055743;28;20399;-91
2023/01/14 11:11:42;;;;;;;12.93;4.80;;;9.30;99.90;;;;;;5061135;28;20392;-88
2023/01/14 11:14:31;;;;;;;19.83;8.63;;;9.30;99.90;;;;;;5059897;28;20401;-90
2023/01/14 11:16:57;;;;;;;16.10;5.20;;;9.30;99.90;;;;;;5061132;28;20379;-90
2023/01/14 11:19:27;;;;;;;25.15;13.65;;;9.20;99.90;;;;;;5062135;28;20952;-91
2023/01/14 11:22:00;;;;;;;25.42;15.15;;;9.20;99.90;;;;;;5061668;28;20439;-90
2023/01/14 11:24:42;;;;;;;26.02;13.13;;;9.30;99.90;;;;;;5057896;28;20470;-92
2023/01/14 11:27:24;;;;;;;12.43;5.13;;;9.40;99.90;;;;;;5061392;28;20403;-89
2023/01/14 11:29:58;;;;;;;15.60;3.88;;;9.30;99.90;;;;;;5059291;28;20375;-90
2023/01/14 11:32:50;;;;;;;12.65;4.43;;;9.10;99.90;;;;;;5067719;28;20920;-91
2023/01/14 11:35:57;;;;;;;11.45;3.72;;;9.30;99.90;;;;;;5060709;28;20384;-89
2023/01/14 11:38:25;;;;;;;10.68;3.53;;;9.20;99.90;;;;;;5045659;28;20398;-91
2023/01/14 11:44:06;;;;;;;12.07;3.30;;;9.20;99.90;;;;;;5042176;28;20463;-92
2023/01/14 11:46:43;;;;;;;13.95;3.72;;;9.30;99.90;;;;;;5056455;28;20478;-88
2023/01/14 11:49:14;;;;;;;10.60;3.72;;;9.30;99.90;;;;;;5058886;28;20475;-87
2023/01/14 11:51:59;;;;;;;15.07;4.03;;;9.10;99.90;;;;;;5053337;28;20463;-86
2023/01/14 11:54:43;;;;;;;13.10;4.47;;;9.30;99.90;;;;;;5066038;28;20439;-89
2023/01/14 11:57:16;;;;;;;11.27;4.10;;;9.20;99.90;;;;;;5066900;28;20695;-91
2023/01/14 11:59:53;;;;;;;11.87;4.03;;;9.20;99.90;;;;;;5065321;28;20376;-91
2023/01/14 12:02:34;;;;;;;10.13;3.47;;;9.30;99.90;;;;;;5061720;28;20380;-89
2023/01/14 12:05:04;;;;;;;16.02;8.32;;;9.20;99.90;;;;;;5062531;28;20423;-92
2023/01/14 12:07:59;;;;;;;14.43;4.55;;;9.00;99.90;;;;;;5052410;28;20490;-88
2023/01/14 12:10:35;;;;;;;11.55;4.70;;;9.00;99.90;;;;;;5062277;28;20360;-90
2023/01/14 12:19:07;;;;;;;12.85;4.22;;;9.00;99.90;;;;;;5063429;28;20425;-88
2023/01/14 12:21:47;;;;;;;13.57;3.50;;;9.10;99.90;;;;;;5060012;28;20427;-90
2023/01/14 12:24:23;;;;;;;13.07;4.50;;;9.00;99.90;;;;;;5045980;28;20603;-88
2023/01/14 12:26:51;;;;;;;12.40;4.03;;;9.00;99.90;;;;;;5051930;28;20398;-89
2023/01/14 12:29:23;;;;;;;128.27;68.40;;;8.90;99.90;;;;;;5041894;28;20525;-87
2023/01/14 12:32:05;;;;;;;12.48;8.00;;;8.80;99.90;;;;;;5049697;28;20459;-85
2023/01/14 12:34:43;;;;;;;13.77;4.20;;;8.80;99.90;;;;;;5033975;28;20973;-89
2023/01/14 12:37:41;;;;;;;12.43;4.80;;;8.90;99.90;;;;;;5033170;28;20377;-86
2023/01/14 12:46:44;;;;;;;13.73;3.85;;;8.90;99.90;;;;;;5053776;28;21130;-87
2023/01/14 12:49:39;;;;;;;11.63;4.00;;;9.00;99.90;;;;;;5053127;28;20762;-88
2023/01/14 12:52:48;;;;;;;12.15;3.90;;;8.90;99.90;;;;;;5057238;28;20474;-90
2023/01/14 12:55:35;;;;;;;12.73;4.50;;;8.80;99.90;;;;;;5003198;28;20890;-86
2023/01/14 12:58:03;;;;;;;14.05;5.32;;;8.80;99.90;;;;;;5047863;28;20423;-86
2023/01/14 13:00:38;;;;;;;9.95;4.28;;;8.80;99.90;;;;;;5044667;28;20832;-86
2023/01/14 13:03:09;;;;;;;22.67;13.18;;;8.80;99.90;;;;;;5044093;28;20384;-86
2023/01/14 13:05:42;;;;;;;23.17;13.43;;;8.90;99.90;;;;;;5042911;28;20426;-86
2023/01/14 13:08:21;;;;;;;25.85;14.13;;;8.70;99.90;;;;;;5043452;28;20463;-87
2023/01/14 13:11:03;;;;;;;14.37;5.07;;;8.80;99.90;;;;;;5044812;28;20378;-87
2023/01/14 13:13:33;;;;;;;16.25;4.50;;;8.90;99.90;;;;;;5044492;28;20906;-86
2023/01/14 13:16:03;;;;;;;12.35;3.78;;;8.80;99.90;;;;;;5042516;28;20378;-87
2023/01/14 13:18:35;;;;;;;10.55;3.90;;;8.80;99.90;;;;;;5049729;28;20411;-87
2023/01/14 13:21:05;;;;;;;13.27;3.80;;;8.70;99.90;;;;;;5047707;28;20446;-86
2023/01/14 13:23:37;;;;;;;12.73;4.33;;;8.70;99.90;;;;;;5056922;28;20381;-84
2023/01/14 13:26:29;;;;;;;12.90;3.80;;;8.70;99.90;;;;;;5055041;28;20459;-85
2023/01/14 13:29:16;;;;;;;12.00;4.32;;;8.70;99.90;;;;;;5025300;28;20400;-86
2023/01/14 13:31:43;;;;;;;14.25;6.50;;;8.60;99.90;;;;;;5041722;28;20388;-90
2023/01/14 13:34:21;;;;;;;11.68;4.50;;;8.60;99.90;;;;;;5041353;28;20397;-85
2023/01/14 13:36:47;;;;;;;13.88;4.32;;;8.60;99.90;;;;;;5042692;28;20472;-87
2023/01/14 13:39:23;;;;;;;12.55;4.10;;;8.60;99.90;;;;;;5039374;28;20391;-87
2023/01/14 13:42:13;;;;;;;12.00;3.85;;;8.60;99.90;;;;;;5038771;28;20470;-87
2023/01/14 13:44:48;;;;;;;9.07;3.50;;;8.60;99.90;;;;;;5040756;28;20370;-87
2023/01/14 13:47:27;;;;;;;13.68;4.28;;;8.60;99.90;;;;;;5038464;28;20539;-86
2023/01/14 13:50:21;;;;;;;13.95;4.40;;;8.50;99.90;;;;;;5038912;28;20461;-87
2023/01/14 13:53:04;;;;;;;13.68;4.25;;;8.60;99.90;;;;;;5040956;28;20862;-89
2023/01/14 13:56:19;;;;;;;9.52;3.90;;;8.60;99.90;;;;;;5042652;28;20750;-89
2023/01/14 13:58:57;;;;;;;9.63;3.67;;;8.50;99.90;;;;;;5021226;28;20872;-87
2023/01/14 14:01:30;;;;;;;14.57;4.10;;;8.50;99.90;;;;;;5041207;28;20377;-89
2023/01/14 14:04:00;;;;;;;9.93;3.72;;;8.30;99.90;;;;;;5046306;28;20399;-88
2023/01/14 14:06:34;;;;;;;13.90;4.72;;;8.40;99.90;;;;;;5042229;28;20800;-88
2023/01/14 14:09:31;;;;;;;14.47;4.40;;;8.30;99.90;;;;;;5043656;28;20460;-88